createdAt,value
2022-09-07T00:00:44.482Z,100371.58
2022-09-07T00:03:11.891Z,100379.34
2022-09-07T00:05:43.590Z,100384.67
2022-09-07T00:08:11.161Z,100380.02
2022-09-07T00:10:39.577Z,100373.90
2022-09-07T00:13:08.632Z,100369.47
2022-09-07T00:15:40.812Z,100368.15
2022-09-07T00:18:08.357Z,100365.45
2022-09-07T00:20:35.808Z,100365.14
2022-09-07T00:23:03.261Z,100364.23
2022-09-07T00:25:32.030Z,100360.98
2022-09-07T00:27:59.711Z,100355.75
2022-09-07T00:30:26.862Z,100353.09
2022-09-07T00:32:54.108Z,100348.55
2022-09-07T00:35:21.388Z,100343.60
2022-09-07T00:37:49.029Z,100341.63
2022-09-07T00:40:16.483Z,100343.39
2022-09-07T00:42:43.804Z,100338.57
2022-09-07T00:45:18.987Z,100344.38
2022-09-07T00:48:04.552Z,100347.52
2022-09-07T00:50:44.912Z,100351.07
2022-09-07T00:53:35.020Z,100356.09
2022-09-07T00:56:04.033Z,100358.90
2022-09-07T00:58:32.249Z,100355.48
2022-09-07T01:00:59.522Z,100357.20
2022-09-07T01:03:36.913Z,100355.27
2022-09-07T01:06:10.297Z,100354.81
2022-09-07T01:08:37.556Z,100355.27
2022-09-07T01:11:05.322Z,100348.90
2022-09-07T01:13:32.753Z,100341.95
2022-09-07T01:16:01.944Z,100339.98
2022-09-07T01:18:59.552Z,100337.55
2022-09-07T01:21:30.155Z,100340.13
2022-09-07T01:24:42.993Z,100341.24
2022-09-07T01:27:31.543Z,100342.23
2022-09-07T01:30:04.634Z,100346.23
2022-09-07T01:33:02.632Z,100343.48
2022-09-07T01:35:37.232Z,100337.52
2022-09-07T01:38:39.512Z,100329.12
2022-09-07T01:41:23.700Z,100321.39
2022-09-07T01:44:15.993Z,100315.33
2022-09-07T01:46:44.418Z,100316.48
2022-09-07T01:49:20.101Z,100316.56
2022-09-07T01:51:51.496Z,100314.10
2022-09-07T01:54:32.733Z,100315.66
2022-09-07T01:57:06.862Z,100325.95
2022-09-07T01:59:38.815Z,100332.45
2022-09-07T02:02:19.398Z,100330.31
2022-09-07T02:04:50.924Z,100330.08
2022-09-07T02:07:27.512Z,100326.73
2022-09-07T02:10:33.695Z,100326.63
2022-09-07T02:13:07.427Z,100324.27
2022-09-07T02:15:58.117Z,100319.37
2022-09-07T02:18:28.181Z,100317.11
2022-09-07T02:20:58.315Z,100317.78
2022-09-07T02:23:29.869Z,100318.40
2022-09-07T02:26:02.252Z,100321.61
2022-09-07T02:28:32.837Z,100321.84
2022-09-07T02:31:00.782Z,100320.79
2022-09-07T02:33:29.154Z,100320.43
2022-09-07T02:35:56.592Z,100320.52
2022-09-07T02:38:24.499Z,100315.11
2022-09-07T02:40:55.995Z,100314.17
2022-09-07T02:43:24.166Z,100308.86
2022-09-07T02:45:54.352Z,100309.80
2022-09-07T02:48:31.147Z,100308.98
2022-09-07T02:51:19.592Z,100312.71
2022-09-07T02:54:15.552Z,100310.64
2022-09-07T02:56:57.531Z,100311.41
2022-09-07T02:59:30.521Z,100313.86
2022-09-07T03:02:06.003Z,100308.16
2022-09-07T03:04:48.473Z,100307.58
2022-09-07T03:07:19.289Z,100305.42
2022-09-07T03:09:49.901Z,100311.23
2022-09-07T03:12:17.605Z,100315.91
2022-09-07T03:14:45.172Z,100319.29
2022-09-07T03:17:12.721Z,100319.42
2022-09-07T03:19:39.978Z,100317.50
2022-09-07T03:22:07.635Z,100317.96
2022-09-07T03:24:34.788Z,100315.52
2022-09-07T03:27:02.141Z,100319.73
2022-09-07T03:29:29.288Z,100314.73
2022-09-07T03:31:56.439Z,100312.04
2022-09-07T03:34:23.585Z,100309.34
2022-09-07T03:36:50.737Z,100310.52
2022-09-07T03:39:21.264Z,100303.41
2022-09-07T03:41:49.045Z,100299.90
2022-09-07T03:44:16.194Z,100298.98
2022-09-07T03:46:44.761Z,100294.21
2022-09-07T03:49:11.913Z,100294.80
2022-09-07T03:51:39.882Z,100296.86
2022-09-07T03:54:07.652Z,100298.09
2022-09-07T03:56:34.913Z,100298.67
2022-09-07T03:59:02.051Z,100295.09
2022-09-07T04:01:29.572Z,100286.14
2022-09-07T04:04:02.915Z,100280.55
2022-09-07T04:06:30.768Z,100277.08
2022-09-07T04:09:01.609Z,100279.02
2022-09-07T04:11:28.856Z,100281.00
2022-09-07T04:13:56.117Z,100279.66
2022-09-07T04:16:25.668Z,100282.45
2022-09-07T04:18:55.162Z,100283.63
2022-09-07T04:21:23.907Z,100282.58
2022-09-07T04:23:51.466Z,100281.92
2022-09-07T04:26:24.534Z,100280.70
2022-09-07T04:28:55.206Z,100281.07
2022-09-07T04:31:23.583Z,100280.92
2022-09-07T04:33:51.952Z,100282.17
2022-09-07T04:36:20.788Z,100282.65
2022-09-07T04:38:54.384Z,100280.10
2022-09-07T04:41:21.912Z,100280.16
2022-09-07T04:43:53.617Z,100281.05
2022-09-07T04:46:24.132Z,100274.14
2022-09-07T04:48:53.660Z,100271.05
2022-09-07T04:51:22.693Z,100274.55
2022-09-07T04:53:51.152Z,100272.49
2022-09-07T04:56:19.263Z,100277.83
2022-09-07T04:58:47.628Z,100276.84
2022-09-07T05:01:18.198Z,100274.59
2022-09-07T05:03:45.620Z,100272.79
2022-09-07T05:06:13.602Z,100276.60
2022-09-07T05:08:43.714Z,100273.05
2022-09-07T05:11:12.516Z,100273.48
2022-09-07T05:13:39.921Z,100276.02
2022-09-07T05:16:14.657Z,100279.52
2022-09-07T05:18:42.710Z,100282.70
2022-09-07T05:21:15.186Z,100285.14
2022-09-07T05:23:43.246Z,100281.48
2022-09-07T05:26:10.997Z,100281.14
2022-09-07T05:28:38.823Z,100281.98
2022-09-07T05:31:23.243Z,100286.49
2022-09-07T05:36:43.048Z,100294.84
2022-09-07T05:39:10.616Z,100292.56
2022-09-07T05:41:38.470Z,100294.08
2022-09-07T05:46:53.895Z,100292.10
2022-09-07T05:49:21.117Z,100289.21
2022-09-07T05:51:48.860Z,100288.94
2022-09-07T05:54:16.132Z,100280.31
2022-09-07T05:56:43.388Z,100281.95
2022-09-07T05:59:11.367Z,100278.83
2022-09-07T06:01:38.858Z,100281.96
2022-09-07T06:04:06.066Z,100288.83
2022-09-07T06:06:33.479Z,100290.73
2022-09-07T06:09:00.877Z,100287.84
2022-09-07T06:11:28.152Z,100289.19
2022-09-07T06:13:55.380Z,100288.71
2022-09-07T06:16:23.295Z,100292.92
2022-09-07T06:18:50.983Z,100290.44
2022-09-07T06:21:23.063Z,100291.60
2022-09-07T06:23:50.733Z,100288.41
2022-09-07T06:26:19.806Z,100293.57
2022-09-07T06:28:50.762Z,100286.52
2022-09-07T06:31:20.809Z,100289.70
2022-09-07T06:33:48.959Z,100291.26
2022-09-07T06:36:21.554Z,100292.77
2022-09-07T06:38:49.616Z,100290.88
2022-09-07T06:44:05.477Z,100286.41
2022-09-07T06:49:20.510Z,100282.86
2022-09-07T06:51:47.821Z,100285.06
2022-09-07T06:57:09.489Z,100285.95
2022-09-07T06:59:37.515Z,100287.49
2022-09-07T07:02:06.147Z,100288.06
2022-09-07T07:04:37.781Z,100290.17
2022-09-07T07:07:07.101Z,100290.95
2022-09-07T07:09:34.549Z,100283.11
2022-09-07T07:12:03.141Z,100280.45
2022-09-07T07:14:33.779Z,100276.83
2022-09-07T07:17:02.980Z,100279.07
2022-09-07T07:19:30.223Z,100275.71
2022-09-07T07:24:45.064Z,100275.29
2022-09-07T07:27:12.473Z,100274.88
2022-09-07T07:29:39.714Z,100277.83
2022-09-07T07:32:07.069Z,100282.23
2022-09-07T07:34:34.385Z,100283.84
2022-09-07T07:37:01.695Z,100281.96
2022-09-07T07:42:16.372Z,100284.38
2022-09-07T07:44:43.603Z,100284.61
2022-09-07T07:47:10.872Z,100279.73
2022-09-07T07:49:38.022Z,100274.93
2022-09-07T07:54:53.808Z,100267.82
2022-09-07T07:57:21.592Z,100270.02
2022-09-07T07:59:48.846Z,100270.46
2022-09-07T08:02:17.220Z,100272.11
2022-09-07T08:04:45.693Z,100274.97
2022-09-07T08:07:13.343Z,100279.47
2022-09-07T08:09:41.833Z,100280.04
2022-09-07T08:12:13.342Z,100280.60
2022-09-07T08:14:41.709Z,100283.68
2022-09-07T08:17:14.025Z,100284.15
2022-09-07T08:19:41.694Z,100282.25
2022-09-07T08:22:11.187Z,100282.16
2022-09-07T08:24:38.441Z,100278.86
2022-09-07T08:27:05.700Z,100276.80
2022-09-07T08:29:35.080Z,100272.39
2022-09-07T08:32:06.988Z,100269.67
2022-09-07T08:34:36.762Z,100269.05
2022-09-07T08:37:04.022Z,100262.40
2022-09-07T08:39:31.418Z,100259.23
2022-09-07T08:42:07.750Z,100251.79
2022-09-07T08:44:42.120Z,100245.44
2022-09-07T08:47:40.237Z,100244.96
2022-09-07T08:50:12.262Z,100242.23
2022-09-07T08:52:52.812Z,100242.39
2022-09-07T08:55:29.908Z,100241.89
2022-09-07T08:58:22.192Z,100241.35
2022-09-07T09:06:57.130Z,100237.68
2022-09-07T09:09:50.619Z,100233.69
2022-09-07T09:12:52.710Z,100234.45
2022-09-07T09:15:23.032Z,100239.83
2022-09-07T09:18:18.133Z,100242.32
2022-09-07T09:20:51.073Z,100240.21
2022-09-07T09:23:20.832Z,100236.09
2022-09-07T09:25:54.932Z,100235.46
2022-09-07T09:28:24.649Z,100226.88
2022-09-07T09:30:53.810Z,100222.47
2022-09-07T09:33:27.042Z,100221.20
2022-09-07T09:35:56.764Z,100222.02
2022-09-07T09:38:34.529Z,100214.97
2022-09-07T09:41:15.710Z,100213.58
2022-09-07T09:43:48.512Z,100201.57
2022-09-07T09:46:20.725Z,100203.58
2022-09-07T09:48:54.122Z,100202.02
2022-09-07T09:54:23.905Z,100189.58
2022-09-07T09:56:51.759Z,100188.23
2022-09-07T10:05:35.755Z,100184.14
2022-09-07T10:08:06.862Z,100187.77
2022-09-07T10:10:34.071Z,100185.43
2022-09-07T10:13:01.293Z,100188.65
2022-09-07T10:15:40.522Z,100189.05
2022-09-07T10:18:18.903Z,100192.76
2022-09-07T10:20:46.121Z,100192.25
2022-09-07T10:23:24.424Z,100190.20
2022-09-07T10:25:52.438Z,100185.17
2022-09-07T10:28:25.157Z,100181.69
2022-09-07T10:31:14.560Z,100178.63
2022-09-07T10:34:27.029Z,100179.52
2022-09-07T10:37:09.169Z,100180.83
2022-09-07T10:39:40.133Z,100178.46
2022-09-07T10:42:10.429Z,100180.80
2022-09-07T10:44:43.562Z,100178.73
2022-09-07T10:47:44.753Z,100172.44
2022-09-07T10:50:29.142Z,100166.65
2022-09-07T10:53:43.849Z,100168.19
2022-09-07T10:56:15.731Z,100164.37
2022-09-07T10:59:05.637Z,100159.27
2022-09-07T11:01:58.294Z,100159.31
2022-09-07T11:04:40.686Z,100160.89
2022-09-07T11:07:15.678Z,100154.35
2022-09-07T11:09:49.194Z,100147.52
2022-09-07T11:12:27.349Z,100147.23
2022-09-07T11:15:07.323Z,100144.76
2022-09-07T11:18:05.288Z,100152.62
2022-09-07T11:20:37.739Z,100150.17
2022-09-07T11:23:29.173Z,100150.34
2022-09-07T11:26:07.830Z,100152.04
2022-09-07T11:31:45.933Z,100136.08
2022-09-07T11:34:24.635Z,100134.91
2022-09-07T11:37:11.421Z,100136.30
2022-09-07T11:39:41.479Z,100133.46
2022-09-07T11:42:43.134Z,100132.33
2022-09-07T11:45:22.715Z,100125.54
2022-09-07T11:47:57.021Z,100125.66
2022-09-07T11:50:24.844Z,100121.17
2022-09-07T11:53:01.435Z,100124.61
2022-09-07T11:55:31.744Z,100125.66
2022-09-07T11:58:44.041Z,100126.48
2022-09-07T12:01:19.977Z,100125.48
2022-09-07T12:04:05.643Z,100123.34
2022-09-07T12:07:03.702Z,100123.97
2022-09-07T12:09:52.356Z,100123.17
2022-09-07T12:12:42.464Z,100120.73
2022-09-07T12:15:30.982Z,100123.33
2022-09-07T12:18:05.587Z,100121.48
2022-09-07T12:20:44.212Z,100120.52
2022-09-07T12:23:17.382Z,100117.23
2022-09-07T12:25:49.358Z,100111.07
2022-09-07T12:28:25.589Z,100107.69
2022-09-07T12:31:07.133Z,100102.46
2022-09-07T12:33:38.996Z,100100.67
2022-09-07T12:36:38.670Z,100095.89
2022-09-07T12:39:17.429Z,100089.33
2022-09-07T12:45:30.294Z,100082.08
2022-09-07T12:48:00.410Z,100076.96
2022-09-07T12:50:30.061Z,100072.29
2022-09-07T12:53:48.552Z,100069.03
2022-09-07T12:56:39.332Z,100071.79
2022-09-07T12:59:37.244Z,100073.57
2022-09-07T13:02:24.290Z,100074.66
2022-09-07T13:04:57.206Z,100066.72
2022-09-07T13:07:46.477Z,100059.92
2022-09-07T13:10:33.536Z,100059.48
2022-09-07T13:13:04.769Z,100056.52
2022-09-07T13:15:41.030Z,100059.10
2022-09-07T13:18:27.278Z,100056.92
2022-09-07T13:21:09.493Z,100056.80
2022-09-07T13:23:40.773Z,100051.80
2022-09-07T13:26:10.176Z,100049.77
2022-09-07T13:28:52.668Z,100048.86
2022-09-07T13:31:23.608Z,100040.66
2022-09-07T13:33:52.457Z,100040.23
2022-09-07T13:36:24.480Z,100039.88
2022-09-07T13:38:53.567Z,100040.45
2022-09-07T13:41:29.898Z,100037.36
2022-09-07T13:44:00.684Z,100030.03
2022-09-07T13:46:56.884Z,100028.21
2022-09-07T13:49:23.858Z,100030.24
2022-09-07T13:52:12.813Z,100029.14
2022-09-07T13:55:01.972Z,100033.90
2022-09-07T13:57:31.466Z,100033.73
2022-09-07T13:59:59.160Z,100028.05
2022-09-07T14:02:33.117Z,100029.71
2022-09-07T14:05:01.232Z,100025.90
2022-09-07T14:07:31.842Z,100025.84
2022-09-07T14:10:20.781Z,100022.39
2022-09-07T14:12:50.916Z,100021.63
2022-09-07T14:15:33.783Z,100017.34
2022-09-07T14:18:06.617Z,100014.42
2022-09-07T14:20:42.275Z,100012.82
2022-09-07T14:23:25.721Z,100007.63
2022-09-07T14:26:16.653Z,100009.19
2022-09-07T14:28:46.222Z,100007.49
2022-09-07T14:31:16.204Z,100006.95
2022-09-07T14:33:51.801Z,100003.61
2022-09-07T14:36:45.415Z,100001.42
2022-09-07T14:39:09.023Z,99996.81
2022-09-07T14:41:41.084Z,99994.40
2022-09-07T14:44:34.037Z,99992.98
2022-09-07T14:47:04.805Z,99989.08
2022-09-07T14:49:32.326Z,99984.38
2022-09-07T14:52:00.748Z,99983.20
2022-09-07T14:54:31.644Z,99980.31
2022-09-07T14:57:02.904Z,99982.19
2022-09-07T14:59:43.183Z,99980.46
2022-09-07T15:02:20.084Z,99973.11
2022-09-07T15:04:49.058Z,99974.52
2022-09-07T15:07:39.015Z,99979.06
2022-09-07T15:10:21.410Z,99981.86
2022-09-07T15:12:50.712Z,99981.73
2022-09-07T15:15:40.585Z,99975.38
2022-09-07T15:18:45.625Z,99972.39
2022-09-07T15:21:12.892Z,99974.55
2022-09-07T15:23:40.132Z,99969.46
2022-09-07T15:27:01.933Z,99964.77
2022-09-07T15:29:13.705Z,99960.16
2022-09-07T15:31:42.791Z,99960.86
2022-09-07T15:34:17.987Z,99954.50
2022-09-07T15:36:53.310Z,99951.27
2022-09-07T15:39:23.244Z,99946.48
2022-09-07T15:41:51.636Z,99942.15
2022-09-07T15:44:24.381Z,99940.90
2022-09-07T15:49:43.500Z,99942.98
2022-09-07T15:52:13.603Z,99942.49
2022-09-07T15:54:40.873Z,99944.89
2022-09-07T15:59:55.331Z,99941.25
2022-09-07T16:05:10.655Z,99943.83
2022-09-07T16:10:27.361Z,99947.10
2022-09-07T16:13:03.199Z,99947.20
2022-09-07T16:15:45.246Z,99946.52
2022-09-07T16:18:16.438Z,99945.06
2022-09-07T16:20:44.828Z,99943.45
2022-09-07T16:23:15.008Z,99943.61
2022-09-07T16:25:43.848Z,99944.64
2022-09-07T16:28:11.703Z,99942.16
2022-09-07T16:30:40.995Z,99937.35
2022-09-07T16:33:08.802Z,99933.91
2022-09-07T16:35:36.343Z,99935.17
2022-09-07T16:40:51.526Z,99936.60
2022-09-07T16:43:19.096Z,99934.25
2022-09-07T16:48:35.591Z,99928.37
2022-09-07T16:51:04.513Z,99918.96
2022-09-07T16:53:34.625Z,99917.05
2022-09-07T16:56:06.438Z,99915.81
2022-09-07T16:58:35.704Z,99912.65
2022-09-07T17:01:04.482Z,99907.92
2022-09-07T17:03:32.876Z,99905.69
2022-09-07T17:06:01.465Z,99910.64
2022-09-07T17:08:29.008Z,99909.77
2022-09-07T17:11:01.424Z,99913.55
2022-09-07T17:13:28.896Z,99915.52
2022-09-07T17:16:02.545Z,99918.65
2022-09-07T17:21:19.745Z,99925.34
2022-09-07T17:23:54.212Z,99928.40
2022-09-07T17:26:26.056Z,99930.75
2022-09-07T17:28:55.213Z,99929.37
2022-09-07T17:34:15.521Z,99928.85
2022-09-07T17:36:42.773Z,99936.54
2022-09-07T17:39:15.907Z,99935.59
2022-09-07T17:41:43.859Z,99930.02
2022-09-07T17:44:11.923Z,99922.68
2022-09-07T17:46:39.575Z,99923.22
2022-09-07T17:49:11.869Z,99927.05
2022-09-07T17:51:39.298Z,99930.96
2022-09-07T17:54:11.599Z,99931.75
2022-09-07T17:56:43.734Z,99935.42
2022-09-07T18:02:01.002Z,99941.61
2022-09-07T18:04:29.685Z,99948.84
2022-09-07T18:06:57.733Z,99951.89
2022-09-07T18:09:25.183Z,99954.55
2022-09-07T18:11:53.224Z,99951.73
2022-09-07T18:14:21.022Z,99949.42
2022-09-07T18:16:50.878Z,99948.10
2022-09-07T18:19:19.653Z,99941.39
2022-09-07T18:21:48.657Z,99943.09
2022-09-07T18:24:23.038Z,99951.66
2022-09-07T18:26:53.343Z,99950.55
2022-09-07T18:29:33.915Z,99953.98
2022-09-07T18:32:08.222Z,99953.30
2022-09-07T18:34:40.571Z,99955.02
2022-09-07T18:37:09.506Z,99959.27
2022-09-07T18:39:40.474Z,99957.42
2022-09-07T18:42:09.432Z,99958.89
2022-09-07T18:47:29.787Z,99956.82
2022-09-07T18:49:58.337Z,99958.42
2022-09-07T18:55:14.674Z,99964.41
2022-09-07T18:57:42.814Z,99962.73
2022-09-07T19:00:12.223Z,99959.17
2022-09-07T19:02:40.434Z,99956.86
2022-09-07T19:07:58.031Z,99955.09
2022-09-07T19:10:25.999Z,99954.46
2022-09-07T19:12:54.293Z,99954.78
2022-09-07T19:15:22.330Z,99947.08
2022-09-07T19:17:50.620Z,99938.40
2022-09-07T19:20:18.810Z,99934.94
2022-09-07T19:22:47.078Z,99935.58
2022-09-07T19:25:15.043Z,99936.11
2022-09-07T19:27:42.854Z,99934.17
2022-09-07T19:30:11.165Z,99928.82
2022-09-07T19:32:38.978Z,99925.39
2022-09-07T19:35:07.456Z,99921.63
2022-09-07T19:37:38.476Z,99919.48
2022-09-07T19:40:08.976Z,99914.35
2022-09-07T19:42:37.586Z,99908.66
2022-09-07T19:45:06.942Z,99901.27
2022-09-07T19:47:35.716Z,99901.55
2022-09-07T19:50:03.991Z,99903.85
2022-09-07T19:52:32.555Z,99902.59
2022-09-07T19:55:03.883Z,99900.48
2022-09-07T19:57:31.352Z,99903.61
2022-09-07T20:00:00.227Z,99908.95
2022-09-07T20:02:28.224Z,99911.19
2022-09-07T20:04:56.793Z,99909.92
2022-09-07T20:07:24.860Z,99909.98
2022-09-07T20:09:54.149Z,99901.75
2022-09-07T20:12:21.552Z,99899.10
2022-09-07T20:14:49.570Z,99895.73
2022-09-07T20:17:17.616Z,99901.19
2022-09-07T20:19:45.309Z,99906.25
2022-09-07T20:22:13.373Z,99902.91
2022-09-07T20:24:41.274Z,99903.28
2022-09-07T20:27:08.900Z,99904.00
2022-09-07T20:29:36.562Z,99901.75
2022-09-07T20:32:03.911Z,99904.10
2022-09-07T20:34:31.825Z,99902.63
2022-09-07T20:37:00.473Z,99900.27
2022-09-07T20:39:27.919Z,99904.29
2022-09-07T20:41:55.293Z,99900.68
2022-09-07T20:44:22.538Z,99903.80
2022-09-07T20:46:49.727Z,99903.71
2022-09-07T20:49:16.834Z,99900.95
2022-09-07T20:51:43.884Z,99894.79
2022-09-07T20:54:11.177Z,99892.17
2022-09-07T20:56:38.594Z,99891.06
2022-09-07T20:59:05.962Z,99894.27
2022-09-07T21:01:35.510Z,99895.19
2022-09-07T21:04:04.320Z,99892.75
2022-09-07T21:06:32.115Z,99897.26
2022-09-07T21:09:00.294Z,99898.53
2022-09-07T21:11:32.415Z,99901.49
2022-09-07T21:14:00.520Z,99900.64
2022-09-07T21:16:28.756Z,99898.01
2022-09-07T21:18:57.906Z,99899.98
2022-09-07T21:21:26.929Z,99902.60
2022-09-07T21:23:59.766Z,99904.66
2022-09-07T21:26:28.687Z,99904.43
2022-09-07T21:28:57.553Z,99901.69
2022-09-07T21:31:25.623Z,99902.40
2022-09-07T21:33:57.579Z,99908.32
2022-09-07T21:36:25.457Z,99911.80
2022-09-07T21:38:53.158Z,99912.69
2022-09-07T21:41:21.804Z,99913.91
2022-09-07T21:43:49.055Z,99911.55
2022-09-07T21:46:21.958Z,99909.95
2022-09-07T21:48:49.213Z,99905.20
2022-09-07T21:51:17.156Z,99910.08
2022-09-07T21:53:45.218Z,99910.35
2022-09-07T21:56:14.528Z,99915.04
2022-09-07T21:58:42.494Z,99917.98
2022-09-07T22:01:19.825Z,99919.98
2022-09-07T22:03:49.387Z,99914.20
2022-09-07T22:06:16.427Z,99915.09
2022-09-07T22:08:43.713Z,99914.45
2022-09-07T22:11:16.494Z,99915.16
2022-09-07T22:13:44.025Z,99916.33
2022-09-07T22:16:12.066Z,99913.83
2022-09-07T22:18:40.561Z,99917.73
2022-09-07T22:21:09.692Z,99918.64
2022-09-07T22:23:39.689Z,99913.87
2022-09-07T22:26:07.499Z,99908.10
2022-09-07T22:28:35.220Z,99907.25
2022-09-07T22:31:41.485Z,99902.89
2022-09-07T22:34:09.804Z,99894.70
2022-09-07T22:36:40.211Z,99892.48
2022-09-07T22:39:10.611Z,99888.39
2022-09-07T22:41:39.125Z,99881.84
2022-09-07T22:44:10.438Z,99876.67
2022-09-07T22:46:39.695Z,99870.98
2022-09-07T22:49:07.513Z,99867.07
2022-09-07T22:51:34.665Z,99863.55
2022-09-07T22:54:02.137Z,99856.08
2022-09-07T22:56:31.832Z,99852.23
2022-09-07T22:59:04.412Z,99853.17
2022-09-07T23:01:32.394Z,99853.30
2022-09-07T23:04:00.436Z,99851.02
2022-09-07T23:06:46.509Z,99849.63
2022-09-07T23:09:16.772Z,99848.11
2022-09-07T23:11:45.508Z,99847.44
2022-09-07T23:14:16.054Z,99846.96
2022-09-07T23:16:44.144Z,99846.36
2022-09-07T23:19:13.361Z,99844.52
2022-09-07T23:21:40.986Z,99839.81
2022-09-07T23:24:10.043Z,99833.27
2022-09-07T23:26:37.153Z,99829.82
2022-09-07T23:29:05.852Z,99827.81
2022-09-07T23:31:34.766Z,99823.96
2022-09-07T23:34:03.313Z,99824.48
2022-09-07T23:36:31.393Z,99819.04
2022-09-07T23:39:00.079Z,99815.38
2022-09-07T23:41:28.019Z,99812.88
2022-09-07T23:43:56.105Z,99805.14
2022-09-07T23:46:23.578Z,99802.41
2022-09-07T23:48:51.021Z,99797.88
2022-09-07T23:51:23.553Z,99794.37
2022-09-07T23:53:52.175Z,99791.95
2022-09-07T23:56:19.751Z,99792.89
2022-09-07T23:58:46.778Z,99798.83
